PWSweather.com
Personal Weather Stations
Station Observations
KTXROWLE6
Ravens Nest, Rowlett, TX 75089

Ravens NestRowlett, TX 75089

Lat: 32.93105, Lon: -96.57368

Elevation: 556

Station Type: Davis Vantage Pro2 6152

http://rowlett.ws

High Low Average
Temperature 90.2°F32.3°C 72.2°F22.3°C 80.9°F27.2°C
Dew Point 62.3°F16.8°C 53.2°F11.8°C 58.0°F14.4°C
Winds 3.8 mph 6.1 kmh Calm Calm 2.0 mph NE3.2 kmh NE
Wind Gusts 14.0 mph22.5 kmh -- 6.0 mph9.7 kmh
Humidity 64% 30% 47%
Pressure 30.14 in1020.7 mb 30.03 in1016.9 mb -
Precipitation 0.00 in0.0 mm - -
Hour Temp Dew Point Humidity Winds Wind Gusts Pressure Precip Precip Rate Daily Precip Total
12:00 AM 78.2°F25.7°C 60.7°F15.9°C 55% 2.8 mph NNE4.5 kmh NNE 7.0 mph11.3 kmh 30.07 in1018.3 mb 0.00 in0.0 mm 0.00 in0.0 mm 0.00 in0.0 mm
12:05 AM 78.1°F25.6°C 60.6°F15.9°C 55% 2.2 mph N3.5 kmh N 7.0 mph11.3 kmh 30.07 in1018.3 mb 0.00 in0.0 mm 0.00 in0.0 mm 0.00 in0.0 mm
12:10 AM 77.9°F25.5°C 60.9°F16.1°C 56% 2.5 mph NE4.0 kmh NE 6.0 mph9.7 kmh 30.06 in1017.9 mb 0.00 in0.0 mm 0.00 in0.0 mm 0.00 in0.0 mm
12:15 AM 77.9°F25.5°C 60.9°F16.1°C 56% 2.8 mph NNE4.5 kmh NNE 7.0 mph11.3 kmh 30.06 in1017.9 mb 0.00 in0.0 mm 0.00 in0.0 mm 0.00 in0.0 mm
12:20 AM 77.8°F25.4°C 60.8°F16.0°C 56% 3.1 mph NNE5.0 kmh NNE 7.0 mph11.3 kmh 30.07 in1018.3 mb 0.00 in0.0 mm 0.00 in0.0 mm 0.00 in0.0 mm
12:25 AM 77.7°F25.4°C 60.7°F15.9°C 56% 3.0 mph NNE4.8 kmh NNE 6.0 mph9.7 kmh 30.07 in1018.3 mb 0.00 in0.0 mm 0.00 in0.0 mm 0.00 in0.0 mm
12:30 AM 77.7°F25.4°C 60.7°F15.9°C 56% 3.8 mph NNE6.1 kmh NNE 7.0 mph11.3 kmh 30.07 in1018.3 mb 0.00 in0.0 mm 0.00 in0.0 mm 0.00 in0.0 mm
12:35 AM 77.6°F25.3°C 60.6°F15.9°C 56% 2.9 mph NNE4.7 kmh NNE 7.0 mph11.3 kmh 30.06 in1017.9 mb 0.00 in0.0 mm 0.00 in0.0 mm 0.00 in0.0 mm
12:40 AM 77.6°F25.3°C 60.6°F15.9°C 56% 2.3 mph NNE3.7 kmh NNE 7.0 mph11.3 kmh 30.06 in1017.9 mb 0.00 in0.0 mm 0.00 in0.0 mm 0.00 in0.0 mm
12:45 AM 77.6°F25.3°C 60.6°F15.9°C 56% 3.0 mph NNE4.8 kmh NNE 8.0 mph12.9 kmh 30.06 in1017.9 mb 0.00 in0.0 mm 0.00 in0.0 mm 0.00 in0.0 mm
12:50 AM 77.5°F25.3°C 60.5°F15.8°C 56% 2.2 mph NE3.5 kmh NE 8.0 mph12.9 kmh 30.06 in1017.9 mb 0.00 in0.0 mm 0.00 in0.0 mm 0.00 in0.0 mm
12:55 AM 77.3°F25.2°C 60.4°F15.8°C 56% 2.6 mph NE4.2 kmh NE 7.0 mph11.3 kmh 30.06 in1017.9 mb 0.00 in0.0 mm 0.00 in0.0 mm 0.00 in0.0 mm
01:00 AM 77.1°F25.1°C 60.7°F15.9°C 57% 2.6 mph NNE4.2 kmh NNE 7.0 mph11.3 kmh 30.06 in1017.9 mb 0.00 in0.0 mm 0.00 in0.0 mm 0.00 in0.0 mm
01:05 AM 77.1°F25.1°C 60.7°F15.9°C 57% 2.6 mph NE4.2 kmh NE 8.0 mph12.9 kmh 30.06 in1017.9 mb 0.00 in0.0 mm 0.00 in0.0 mm 0.00 in0.0 mm
01:10 AM 76.8°F24.9°C 60.4°F15.8°C 57% 2.0 mph NNE3.2 kmh NNE 8.0 mph12.9 kmh 30.06 in1017.9 mb 0.00 in0.0 mm 0.00 in0.0 mm 0.00 in0.0 mm
01:15 AM 76.7°F24.8°C 60.3°F15.7°C 57% 2.1 mph NNE3.4 kmh NNE 7.0 mph11.3 kmh 30.06 in1017.9 mb 0.00 in0.0 mm 0.00 in0.0 mm 0.00 in0.0 mm
01:20 AM 76.5°F24.7°C 60.6°F15.9°C 58% 1.4 mph NNE2.3 kmh NNE 7.0 mph11.3 kmh 30.06 in1017.9 mb 0.00 in0.0 mm 0.00 in0.0 mm 0.00 in0.0 mm
01:25 AM 76.4°F24.7°C 60.5°F15.8°C 58% 1.8 mph NE2.9 kmh NE 8.0 mph12.9 kmh 30.06 in1017.9 mb 0.00 in0.0 mm 0.00 in0.0 mm 0.00 in0.0 mm
01:30 AM 76.5°F24.7°C 60.1°F15.6°C 57% 2.3 mph NE3.7 kmh NE 8.0 mph12.9 kmh 30.06 in1017.9 mb 0.00 in0.0 mm 0.00 in0.0 mm 0.00 in0.0 mm
01:35 AM 76.4°F24.7°C 60.0°F15.6°C 57% 1.9 mph NE3.1 kmh NE 6.0 mph9.7 kmh 30.06 in1017.9 mb 0.00 in0.0 mm 0.00 in0.0 mm 0.00 in0.0 mm
01:40 AM 76.5°F24.7°C 60.1°F15.6°C 57% 2.5 mph NE4.0 kmh NE 8.0 mph12.9 kmh 30.06 in1017.9 mb 0.00 in0.0 mm 0.00 in0.0 mm 0.00 in0.0 mm
01:45 AM 76.4°F24.7°C 60.0°F15.6°C 57% 2.4 mph NE3.9 kmh NE 9.0 mph14.5 kmh 30.06 in1017.9 mb 0.00 in0.0 mm 0.00 in0.0 mm 0.00 in0.0 mm
01:50 AM 76.3°F24.6°C 59.9°F15.5°C 57% 2.5 mph NNE4.0 kmh NNE 9.0 mph14.5 kmh 30.06 in1017.9 mb 0.00 in0.0 mm 0.00 in0.0 mm 0.00 in0.0 mm
01:55 AM 76.2°F24.6°C 59.8°F15.4°C 57% 2.3 mph NE3.7 kmh NE 7.0 mph11.3 kmh 30.06 in1017.9 mb 0.00 in0.0 mm 0.00 in0.0 mm 0.00 in0.0 mm
02:00 AM 76.1°F24.5°C 59.7°F15.4°C 57% 2.8 mph NNE4.5 kmh NNE 7.0 mph11.3 kmh 30.06 in1017.9 mb 0.00 in0.0 mm 0.00 in0.0 mm 0.00 in0.0 mm
02:05 AM 76.1°F24.5°C 59.7°F15.4°C 57% 3.2 mph NE5.1 kmh NE 8.0 mph12.9 kmh 30.07 in1018.3 mb 0.00 in0.0 mm 0.00 in0.0 mm 0.00 in0.0 mm
02:10 AM 76.0°F24.4°C 59.6°F15.3°C 57% 2.1 mph NE3.4 kmh NE 8.0 mph12.9 kmh 30.07 in1018.3 mb 0.00 in0.0 mm 0.00 in0.0 mm 0.00 in0.0 mm
02:15 AM 75.9°F24.4°C 59.6°F15.3°C 57% 1.9 mph NE3.1 kmh NE 6.0 mph9.7 kmh 30.07 in1018.3 mb 0.00 in0.0 mm 0.00 in0.0 mm 0.00 in0.0 mm
02:20 AM 75.8°F24.3°C 59.5°F15.3°C 57% 2.5 mph NNE4.0 kmh NNE 6.0 mph9.7 kmh 30.07 in1018.3 mb 0.00 in0.0 mm 0.00 in0.0 mm 0.00 in0.0 mm
02:25 AM 75.8°F24.3°C 59.5°F15.3°C 57% 2.5 mph NE4.0 kmh NE 6.0 mph9.7 kmh 30.07 in1018.3 mb 0.00 in0.0 mm 0.00 in0.0 mm 0.00 in0.0 mm
02:30 AM 75.8°F24.3°C 59.5°F15.3°C 57% 1.9 mph NE3.1 kmh NE 6.0 mph9.7 kmh 30.07 in1018.3 mb 0.00 in0.0 mm 0.00 in0.0 mm 0.00 in0.0 mm
02:35 AM 75.7°F24.3°C 59.9°F15.5°C 58% 1.7 mph NE2.7 kmh NE 7.0 mph11.3 kmh 30.07 in1018.3 mb 0.00 in0.0 mm 0.00 in0.0 mm 0.00 in0.0 mm
02:40 AM 75.6°F24.2°C 59.8°F15.4°C 58% 2.3 mph NNE3.7 kmh NNE 8.0 mph12.9 kmh 30.07 in1018.3 mb 0.00 in0.0 mm 0.00 in0.0 mm 0.00 in0.0 mm
02:45 AM 75.6°F24.2°C 59.3°F15.2°C 57% 2.1 mph NE3.4 kmh NE 8.0 mph12.9 kmh 30.07 in1018.3 mb 0.00 in0.0 mm 0.00 in0.0 mm 0.00 in0.0 mm
02:50 AM 75.4°F24.1°C 59.6°F15.3°C 58% 1.8 mph NE2.9 kmh NE 5.0 mph8.0 kmh 30.07 in1018.3 mb 0.00 in0.0 mm 0.00 in0.0 mm 0.00 in0.0 mm
02:55 AM 75.3°F24.1°C 59.5°F15.3°C 58% 1.8 mph NE2.9 kmh NE 7.0 mph11.3 kmh 30.07 in1018.3 mb 0.00 in0.0 mm 0.00 in0.0 mm 0.00 in0.0 mm
03:00 AM 75.3°F24.1°C 59.5°F15.3°C 58% 2.3 mph NNE3.7 kmh NNE 7.0 mph11.3 kmh 30.07 in1018.3 mb 0.00 in0.0 mm 0.00 in0.0 mm 0.00 in0.0 mm
03:05 AM 75.2°F24.0°C 59.4°F15.2°C 58% 1.1 mph NE1.8 kmh NE 6.0 mph9.7 kmh 30.08 in1018.6 mb 0.00 in0.0 mm 0.00 in0.0 mm 0.00 in0.0 mm
03:10 AM 75.0°F23.9°C 59.7°F15.4°C 59% 1.8 mph NNE2.9 kmh NNE 5.0 mph8.0 kmh 30.08 in1018.6 mb 0.00 in0.0 mm 0.00 in0.0 mm 0.00 in0.0 mm
03:15 AM 75.1°F23.9°C 59.3°F15.2°C 58% 1.8 mph NE2.9 kmh NE 8.0 mph12.9 kmh 30.08 in1018.6 mb 0.00 in0.0 mm 0.00 in0.0 mm 0.00 in0.0 mm
03:20 AM 75.0°F23.9°C 59.7°F15.4°C 59% 1.7 mph NE2.7 kmh NE 8.0 mph12.9 kmh 30.08 in1018.6 mb 0.00 in0.0 mm 0.00 in0.0 mm 0.00 in0.0 mm
03:25 AM 74.9°F23.8°C 59.6°F15.3°C 59% 1.5 mph NE2.4 kmh NE 7.0 mph11.3 kmh 30.08 in1018.6 mb 0.00 in0.0 mm 0.00 in0.0 mm 0.00 in0.0 mm
03:30 AM 74.7°F23.7°C 59.4°F15.2°C 59% 1.5 mph NE2.4 kmh NE 5.0 mph8.0 kmh 30.08 in1018.6 mb 0.00 in0.0 mm 0.00 in0.0 mm 0.00 in0.0 mm
03:35 AM 74.4°F23.6°C 59.1°F15.1°C 59% 1.8 mph NE2.9 kmh NE 6.0 mph9.7 kmh 30.08 in1018.6 mb 0.00 in0.0 mm 0.00 in0.0 mm 0.00 in0.0 mm
03:40 AM 74.2°F23.4°C 59.4°F15.2°C 60% 1.4 mph NE2.3 kmh NE 6.0 mph9.7 kmh 30.08 in1018.6 mb 0.00 in0.0 mm 0.00 in0.0 mm 0.00 in0.0 mm
03:45 AM 74.0°F23.3°C 59.2°F15.1°C 60% 1.1 mph NE1.8 kmh NE 5.0 mph8.0 kmh 30.08 in1018.6 mb 0.00 in0.0 mm 0.00 in0.0 mm 0.00 in0.0 mm
03:50 AM 73.9°F23.3°C 59.6°F15.3°C 61% 1.3 mph NE2.1 kmh NE 3.0 mph4.8 kmh 30.08 in1018.6 mb 0.00 in0.0 mm 0.00 in0.0 mm 0.00 in0.0 mm
03:55 AM 73.8°F23.2°C 59.5°F15.3°C 61% 1.2 mph NE1.9 kmh NE 3.0 mph4.8 kmh 30.08 in1018.6 mb 0.00 in0.0 mm 0.00 in0.0 mm 0.00 in0.0 mm
04:00 AM 73.7°F23.2°C 59.4°F15.2°C 61% 1.4 mph NNE2.3 kmh NNE 7.0 mph11.3 kmh 30.08 in1018.6 mb 0.00 in0.0 mm 0.00 in0.0 mm 0.00 in0.0 mm
04:05 AM 73.6°F23.1°C 59.3°F15.2°C 61% 1.2 mph NNE1.9 kmh NNE 7.0 mph11.3 kmh 30.08 in1018.6 mb 0.00 in0.0 mm 0.00 in0.0 mm 0.00 in0.0 mm
04:10 AM 73.6°F23.1°C 59.3°F15.2°C 61% 1.5 mph NNE2.4 kmh NNE 4.0 mph6.4 kmh 30.09 in1019.0 mb 0.00 in0.0 mm 0.00 in0.0 mm 0.00 in0.0 mm
04:15 AM 73.4°F23.0°C 59.1°F15.1°C 61% 1.1 mph NNE1.8 kmh NNE 4.0 mph6.4 kmh 30.09 in1019.0 mb 0.00 in0.0 mm 0.00 in0.0 mm 0.00 in0.0 mm
04:20 AM 73.3°F22.9°C 59.5°F15.3°C 62% 0.8 mph NE1.3 kmh NE 4.0 mph6.4 kmh 30.09 in1019.0 mb 0.00 in0.0 mm 0.00 in0.0 mm 0.00 in0.0 mm
04:25 AM 73.1°F22.8°C 59.3°F15.2°C 62% 0.5 mph NE0.8 kmh NE 3.0 mph4.8 kmh 30.09 in1019.0 mb 0.00 in0.0 mm 0.00 in0.0 mm 0.00 in0.0 mm
04:30 AM 72.9°F22.7°C 59.6°F15.3°C 63% 0.3 mph NE0.5 kmh NE 2.0 mph3.2 kmh 30.09 in1019.0 mb 0.00 in0.0 mm 0.00 in0.0 mm 0.00 in0.0 mm
04:35 AM 72.8°F22.7°C 59.5°F15.3°C 63% 0.8 mph NE1.3 kmh NE 3.0 mph4.8 kmh 30.09 in1019.0 mb 0.00 in0.0 mm 0.00 in0.0 mm 0.00 in0.0 mm
04:40 AM 72.7°F22.6°C 59.4°F15.2°C 63% 0.5 mph NE0.8 kmh NE 3.0 mph4.8 kmh 30.09 in1019.0 mb 0.00 in0.0 mm 0.00 in0.0 mm 0.00 in0.0 mm
04:45 AM 72.5°F22.5°C 59.2°F15.1°C 63% 0.6 mph NE1.0 kmh NE 3.0 mph4.8 kmh 30.09 in1019.0 mb 0.00 in0.0 mm 0.00 in0.0 mm 0.00 in0.0 mm
04:50 AM 72.4°F22.4°C 59.1°F15.1°C 63% 0.5 mph NE0.8 kmh NE 3.0 mph4.8 kmh 30.09 in1019.0 mb 0.00 in0.0 mm 0.00 in0.0 mm 0.00 in0.0 mm
04:55 AM 72.3°F22.4°C 59.4°F15.2°C 64% 0.8 mph NE1.3 kmh NE 3.0 mph4.8 kmh 30.09 in1019.0 mb 0.00 in0.0 mm 0.00 in0.0 mm 0.00 in0.0 mm
05:00 AM 72.4°F22.4°C 59.1°F15.1°C 63% 1.2 mph NE1.9 kmh NE 4.0 mph6.4 kmh 30.10 in1019.3 mb 0.00 in0.0 mm 0.00 in0.0 mm 0.00 in0.0 mm
05:05 AM 72.5°F22.5°C 59.2°F15.1°C 63% 1.2 mph NE1.9 kmh NE 4.0 mph6.4 kmh 30.10 in1019.3 mb 0.00 in0.0 mm 0.00 in0.0 mm 0.00 in0.0 mm
05:10 AM 72.4°F22.4°C 59.1°F15.1°C 63% 0.9 mph NE1.4 kmh NE 4.0 mph6.4 kmh 30.10 in1019.3 mb 0.00 in0.0 mm 0.00 in0.0 mm 0.00 in0.0 mm
05:15 AM 72.5°F22.5°C 59.2°F15.1°C 63% 1.5 mph NNE2.4 kmh NNE 6.0 mph9.7 kmh 30.10 in1019.3 mb 0.00 in0.0 mm 0.00 in0.0 mm 0.00 in0.0 mm
05:20 AM 72.4°F22.4°C 59.1°F15.1°C 63% 0.9 mph NE1.4 kmh NE 6.0 mph9.7 kmh 30.10 in1019.3 mb 0.00 in0.0 mm 0.00 in0.0 mm 0.00 in0.0 mm
05:25 AM 72.4°F22.4°C 59.1°F15.1°C 63% 1.3 mph NE2.1 kmh NE 4.0 mph6.4 kmh 30.10 in1019.3 mb 0.00 in0.0 mm 0.00 in0.0 mm 0.00 in0.0 mm
05:30 AM 72.4°F22.4°C 59.1°F15.1°C 63% 1.6 mph NNE2.6 kmh NNE 4.0 mph6.4 kmh 30.10 in1019.3 mb 0.00 in0.0 mm 0.00 in0.0 mm 0.00 in0.0 mm
05:35 AM 72.3°F22.4°C 59.0°F15.0°C 63% 2.1 mph NNE3.4 kmh NNE 5.0 mph8.0 kmh 30.11 in1019.6 mb 0.00 in0.0 mm 0.00 in0.0 mm 0.00 in0.0 mm
05:40 AM 72.3°F22.4°C 59.0°F15.0°C 63% 2.9 mph NNE4.7 kmh NNE 6.0 mph9.7 kmh 30.11 in1019.6 mb 0.00 in0.0 mm 0.00 in0.0 mm 0.00 in0.0 mm
05:45 AM 72.2°F22.3°C 59.3°F15.2°C 64% 2.4 mph NNE3.9 kmh NNE 6.0 mph9.7 kmh 30.11 in1019.6 mb 0.00 in0.0 mm 0.00 in0.0 mm 0.00 in0.0 mm
05:50 AM 72.2°F22.3°C 59.3°F15.2°C 64% 1.9 mph NNE3.1 kmh NNE 6.0 mph9.7 kmh 30.11 in1019.6 mb 0.00 in0.0 mm 0.00 in0.0 mm 0.00 in0.0 mm
05:55 AM 72.2°F22.3°C 58.9°F14.9°C 63% 2.3 mph NE3.7 kmh NE 6.0 mph9.7 kmh 30.11 in1019.6 mb 0.00 in0.0 mm 0.00 in0.0 mm 0.00 in0.0 mm
06:00 AM 72.3°F22.4°C 59.4°F15.2°C 64% 2.0 mph NNE3.2 kmh NNE 6.0 mph9.7 kmh 30.11 in1019.6 mb 0.00 in0.0 mm 0.00 in0.0 mm 0.00 in0.0 mm
06:05 AM 72.3°F22.4°C 59.0°F15.0°C 63% 2.7 mph NNE4.3 kmh NNE 7.0 mph11.3 kmh 30.11 in1019.6 mb 0.00 in0.0 mm 0.00 in0.0 mm 0.00 in0.0 mm
06:10 AM 72.3°F22.4°C 59.4°F15.2°C 64% 2.8 mph NNE4.5 kmh NNE 7.0 mph11.3 kmh 30.11 in1019.6 mb 0.00 in0.0 mm 0.00 in0.0 mm 0.00 in0.0 mm
06:15 AM 72.3°F22.4°C 59.0°F15.0°C 63% 3.5 mph N5.6 kmh N 7.0 mph11.3 kmh 30.11 in1019.6 mb 0.00 in0.0 mm 0.00 in0.0 mm 0.00 in0.0 mm
06:20 AM 72.4°F22.4°C 59.5°F15.3°C 64% 2.6 mph NNE4.2 kmh NNE 7.0 mph11.3 kmh 30.11 in1019.6 mb 0.00 in0.0 mm 0.00 in0.0 mm 0.00 in0.0 mm
06:25 AM 72.5°F22.5°C 59.2°F15.1°C 63% 2.9 mph NNE4.7 kmh NNE 7.0 mph11.3 kmh 30.11 in1019.6 mb 0.00 in0.0 mm 0.00 in0.0 mm 0.00 in0.0 mm
06:30 AM 72.6°F22.6°C 59.3°F15.2°C 63% 2.1 mph NNE3.4 kmh NNE 6.0 mph9.7 kmh 30.11 in1019.6 mb 0.00 in0.0 mm 0.00 in0.0 mm 0.00 in0.0 mm
06:35 AM 72.9°F22.7°C 59.6°F15.3°C 63% 3.2 mph NNE5.1 kmh NNE 9.0 mph14.5 kmh 30.11 in1019.6 mb 0.00 in0.0 mm 0.00 in0.0 mm 0.00 in0.0 mm
06:40 AM 73.3°F22.9°C 59.5°F15.3°C 62% 2.9 mph NNE4.7 kmh NNE 9.0 mph14.5 kmh 30.11 in1019.6 mb 0.00 in0.0 mm 0.00 in0.0 mm 0.00 in0.0 mm
06:45 AM 73.5°F23.1°C 59.7°F15.4°C 62% 2.5 mph NE4.0 kmh NE 7.0 mph11.3 kmh 30.11 in1019.6 mb 0.00 in0.0 mm 0.00 in0.0 mm 0.00 in0.0 mm
06:50 AM 73.6°F23.1°C 59.8°F15.4°C 62% 2.9 mph NNE4.7 kmh NNE 9.0 mph14.5 kmh 30.11 in1019.6 mb 0.00 in0.0 mm 0.00 in0.0 mm 0.00 in0.0 mm
06:55 AM 74.1°F23.4°C 60.2°F15.7°C 62% 2.1 mph NE3.4 kmh NE 9.0 mph14.5 kmh 30.11 in1019.6 mb 0.00 in0.0 mm 0.00 in0.0 mm 0.00 in0.0 mm
07:00 AM 74.4°F23.6°C 59.6°F15.3°C 60% 1.8 mph NE2.9 kmh NE 6.0 mph9.7 kmh 30.12 in1020.0 mb 0.00 in0.0 mm 0.00 in0.0 mm 0.00 in0.0 mm
07:05 AM 74.6°F23.7°C 59.8°F15.4°C 60% 2.6 mph NNE4.2 kmh NNE 10.0 mph16.1 kmh 30.12 in1020.0 mb 0.00 in0.0 mm 0.00 in0.0 mm 0.00 in0.0 mm
07:10 AM 74.8°F23.8°C 60.0°F15.6°C 60% 1.9 mph NE3.1 kmh NE 10.0 mph16.1 kmh 30.12 in1020.0 mb 0.00 in0.0 mm 0.00 in0.0 mm 0.00 in0.0 mm
07:15 AM 75.0°F23.9°C 59.7°F15.4°C 59% 2.2 mph NNE3.5 kmh NNE 8.0 mph12.9 kmh 30.12 in1020.0 mb 0.00 in0.0 mm 0.00 in0.0 mm 0.00 in0.0 mm
07:20 AM 75.3°F24.1°C 60.0°F15.6°C 59% 2.0 mph NE3.2 kmh NE 8.0 mph12.9 kmh 30.13 in1020.3 mb 0.00 in0.0 mm 0.00 in0.0 mm 0.00 in0.0 mm
07:25 AM 75.4°F24.1°C 59.6°F15.3°C 58% 2.7 mph NE4.3 kmh NE 7.0 mph11.3 kmh 30.13 in1020.3 mb 0.00 in0.0 mm 0.00 in0.0 mm 0.00 in0.0 mm
07:30 AM 75.6°F24.2°C 59.8°F15.4°C 58% 2.5 mph NE4.0 kmh NE 7.0 mph11.3 kmh 30.13 in1020.3 mb 0.00 in0.0 mm 0.00 in0.0 mm 0.00 in0.0 mm
07:35 AM 76.1°F24.5°C 60.7°F15.9°C 59% 1.8 mph ENE2.9 kmh ENE 6.0 mph9.7 kmh 30.13 in1020.3 mb 0.00 in0.0 mm 0.00 in0.0 mm 0.00 in0.0 mm
07:40 AM 76.4°F24.7°C 60.5°F15.8°C 58% 1.6 mph ENE2.6 kmh ENE 6.0 mph9.7 kmh 30.14 in1020.7 mb 0.00 in0.0 mm 0.00 in0.0 mm 0.00 in0.0 mm
07:45 AM 76.7°F24.8°C 60.8°F16.0°C 58% 1.8 mph ENE2.9 kmh ENE 5.0 mph8.0 kmh 30.14 in1020.7 mb 0.00 in0.0 mm 0.00 in0.0 mm 0.00 in0.0 mm
07:50 AM 76.6°F24.8°C 60.2°F15.7°C 57% 2.6 mph NE4.2 kmh NE 7.0 mph11.3 kmh 30.14 in1020.7 mb 0.00 in0.0 mm 0.00 in0.0 mm 0.00 in0.0 mm
07:55 AM 76.9°F24.9°C 60.5°F15.8°C 57% 2.3 mph NE3.7 kmh NE 9.0 mph14.5 kmh 30.14 in1020.7 mb 0.00 in0.0 mm 0.00 in0.0 mm 0.00 in0.0 mm
08:00 AM 77.4°F25.2°C 60.5°F15.8°C 56% 1.7 mph E2.7 kmh E 9.0 mph14.5 kmh 30.14 in1020.7 mb 0.00 in0.0 mm 0.00 in0.0 mm 0.00 in0.0 mm
08:05 AM 77.6°F25.3°C 61.1°F16.2°C 57% 2.3 mph NE3.7 kmh NE 8.0 mph12.9 kmh 30.14 in1020.7 mb 0.00 in0.0 mm 0.00 in0.0 mm 0.00 in0.0 mm
08:10 AM 77.6°F25.3°C 60.6°F15.9°C 56% 2.1 mph ENE3.4 kmh ENE 8.0 mph12.9 kmh 30.14 in1020.7 mb 0.00 in0.0 mm 0.00 in0.0 mm 0.00 in0.0 mm
08:15 AM 78.2°F25.7°C 61.7°F16.5°C 57% 1.7 mph NE2.7 kmh NE 5.0 mph8.0 kmh 30.14 in1020.7 mb 0.00 in0.0 mm 0.00 in0.0 mm 0.00 in0.0 mm
08:20 AM 78.2°F25.7°C 60.7°F15.9°C 55% 3.3 mph NE5.3 kmh NE 9.0 mph14.5 kmh 30.14 in1020.7 mb 0.00 in0.0 mm 0.00 in0.0 mm 0.00 in0.0 mm
08:25 AM 78.6°F25.9°C 61.6°F16.4°C 56% 1.5 mph NE2.4 kmh NE 9.0 mph14.5 kmh 30.14 in1020.7 mb 0.00 in0.0 mm 0.00 in0.0 mm 0.00 in0.0 mm
08:30 AM 78.9°F26.1°C 60.8°F16.0°C 54% 2.2 mph NE3.5 kmh NE 6.0 mph9.7 kmh 30.14 in1020.7 mb 0.00 in0.0 mm 0.00 in0.0 mm 0.00 in0.0 mm
08:35 AM 79.0°F26.1°C 61.4°F16.3°C 55% 2.1 mph NE3.4 kmh NE 6.0 mph9.7 kmh 30.14 in1020.7 mb 0.00 in0.0 mm 0.00 in0.0 mm 0.00 in0.0 mm
08:40 AM 79.0°F26.1°C 61.4°F16.3°C 55% 2.6 mph ENE4.2 kmh ENE 6.0 mph9.7 kmh 30.14 in1020.7 mb 0.00 in0.0 mm 0.00 in0.0 mm 0.00 in0.0 mm
08:45 AM 79.3°F26.3°C 61.7°F16.5°C 55% 1.9 mph NE3.1 kmh NE 6.0 mph9.7 kmh 30.14 in1020.7 mb 0.00 in0.0 mm 0.00 in0.0 mm 0.00 in0.0 mm
08:50 AM 79.4°F26.3°C 61.3°F16.3°C 54% 2.4 mph ENE3.9 kmh ENE 6.0 mph9.7 kmh 30.14 in1020.7 mb 0.00 in0.0 mm 0.00 in0.0 mm 0.00 in0.0 mm
08:55 AM 79.6°F26.4°C 61.5°F16.4°C 54% 1.6 mph NE2.6 kmh NE 6.0 mph9.7 kmh 30.14 in1020.7 mb 0.00 in0.0 mm 0.00 in0.0 mm 0.00 in0.0 mm
09:00 AM 80.0°F26.7°C 61.3°F16.3°C 53% 1.9 mph NE3.1 kmh NE 6.0 mph9.7 kmh 30.14 in1020.7 mb 0.00 in0.0 mm 0.00 in0.0 mm 0.00 in0.0 mm
09:05 AM 80.0°F26.7°C 61.3°F16.3°C 53% 2.2 mph NE3.5 kmh NE 7.0 mph11.3 kmh 30.14 in1020.7 mb 0.00 in0.0 mm 0.00 in0.0 mm 0.00 in0.0 mm
09:10 AM 80.2°F26.8°C 61.5°F16.4°C 53% 2.0 mph ENE3.2 kmh ENE 7.0 mph11.3 kmh 30.14 in1020.7 mb 0.00 in0.0 mm 0.00 in0.0 mm 0.00 in0.0 mm
09:15 AM 80.3°F26.8°C 61.6°F16.4°C 53% 2.9 mph NNE4.7 kmh NNE 7.0 mph11.3 kmh 30.14 in1020.7 mb 0.00 in0.0 mm 0.00 in0.0 mm 0.00 in0.0 mm
09:20 AM 80.4°F26.9°C 61.1°F16.2°C 52% 3.3 mph NNE5.3 kmh NNE 8.0 mph12.9 kmh 30.14 in1020.7 mb 0.00 in0.0 mm 0.00 in0.0 mm 0.00 in0.0 mm
09:25 AM 81.0°F27.2°C 61.7°F16.5°C 52% 2.2 mph NE3.5 kmh NE 8.0 mph12.9 kmh 30.14 in1020.7 mb 0.00 in0.0 mm 0.00 in0.0 mm 0.00 in0.0 mm
09:30 AM 81.2°F27.3°C 61.3°F16.3°C 51% 2.4 mph ENE3.9 kmh ENE 7.0 mph11.3 kmh 30.14 in1020.7 mb 0.00 in0.0 mm 0.00 in0.0 mm 0.00 in0.0 mm
09:35 AM 81.1°F27.3°C 62.3°F16.8°C 53% 2.6 mph NE4.2 kmh NE 8.0 mph12.9 kmh 30.13 in1020.3 mb 0.00 in0.0 mm 0.00 in0.0 mm 0.00 in0.0 mm
09:40 AM 81.6°F27.6°C 62.2°F16.8°C 52% 2.1 mph ENE3.4 kmh ENE 8.0 mph12.9 kmh 30.14 in1020.7 mb 0.00 in0.0 mm 0.00 in0.0 mm 0.00 in0.0 mm
09:45 AM 82.0°F27.8°C 62.1°F16.7°C 51% 1.8 mph E2.9 kmh E 7.0 mph11.3 kmh 30.14 in1020.7 mb 0.00 in0.0 mm 0.00 in0.0 mm 0.00 in0.0 mm
09:50 AM 82.1°F27.8°C 61.6°F16.4°C 50% 3.0 mph NNE4.8 kmh NNE 8.0 mph12.9 kmh 30.14 in1020.7 mb 0.00 in0.0 mm 0.00 in0.0 mm 0.00 in0.0 mm
09:55 AM 82.5°F28.1°C 61.4°F16.3°C 49% 1.6 mph ENE2.6 kmh ENE 8.0 mph12.9 kmh 30.14 in1020.7 mb 0.00 in0.0 mm 0.00 in0.0 mm 0.00 in0.0 mm
10:00 AM 83.0°F28.3°C 61.3°F16.3°C 48% 1.8 mph ENE2.9 kmh ENE 5.0 mph8.0 kmh 30.13 in1020.3 mb 0.00 in0.0 mm 0.00 in0.0 mm 0.00 in0.0 mm
10:05 AM 82.9°F28.3°C 62.3°F16.8°C 50% 1.7 mph E2.7 kmh E 5.0 mph8.0 kmh 30.13 in1020.3 mb 0.00 in0.0 mm 0.00 in0.0 mm 0.00 in0.0 mm
10:10 AM 83.6°F28.7°C 61.2°F16.2°C 47% 2.6 mph NNE4.2 kmh NNE 11.0 mph17.7 kmh 30.13 in1020.3 mb 0.00 in0.0 mm 0.00 in0.0 mm 0.00 in0.0 mm
10:15 AM 83.7°F28.7°C 61.3°F16.3°C 47% 2.5 mph NE4.0 kmh NE 11.0 mph17.7 kmh 30.13 in1020.3 mb 0.00 in0.0 mm 0.00 in0.0 mm 0.00 in0.0 mm
10:20 AM 83.6°F28.7°C 60.0°F15.6°C 45% 2.4 mph ENE3.9 kmh ENE 7.0 mph11.3 kmh 30.13 in1020.3 mb 0.00 in0.0 mm 0.00 in0.0 mm 0.00 in0.0 mm
10:25 AM 83.4°F28.6°C 60.4°F15.8°C 46% 1.4 mph NE2.3 kmh NE 7.0 mph11.3 kmh 30.13 in1020.3 mb 0.00 in0.0 mm 0.00 in0.0 mm 0.00 in0.0 mm
10:30 AM 84.0°F28.9°C 59.7°F15.4°C 44% 2.5 mph NE4.0 kmh NE 8.0 mph12.9 kmh 30.13 in1020.3 mb 0.00 in0.0 mm 0.00 in0.0 mm 0.00 in0.0 mm
10:35 AM 84.5°F29.2°C 59.5°F15.3°C 43% 3.7 mph NNE6.0 kmh NNE 10.0 mph16.1 kmh 30.13 in1020.3 mb 0.00 in0.0 mm 0.00 in0.0 mm 0.00 in0.0 mm
10:40 AM 84.4°F29.1°C 59.4°F15.2°C 43% 2.3 mph ENE3.7 kmh ENE 10.0 mph16.1 kmh 30.13 in1020.3 mb 0.00 in0.0 mm 0.00 in0.0 mm 0.00 in0.0 mm
10:45 AM 84.4°F29.1°C 59.4°F15.2°C 43% 2.5 mph ENE4.0 kmh ENE 7.0 mph11.3 kmh 30.13 in1020.3 mb 0.00 in0.0 mm 0.00 in0.0 mm 0.00 in0.0 mm
10:50 AM 83.9°F28.8°C 59.0°F15.0°C 43% 2.0 mph ENE3.2 kmh ENE 8.0 mph12.9 kmh 30.13 in1020.3 mb 0.00 in0.0 mm 0.00 in0.0 mm 0.00 in0.0 mm
10:55 AM 84.5°F29.2°C 60.2°F15.7°C 44% 2.0 mph E3.2 kmh E 9.0 mph14.5 kmh 30.14 in1020.7 mb 0.00 in0.0 mm 0.00 in0.0 mm 0.00 in0.0 mm
11:00 AM 85.1°F29.5°C 60.7°F15.9°C 44% 2.0 mph NE3.2 kmh NE 9.0 mph14.5 kmh 30.13 in1020.3 mb 0.00 in0.0 mm 0.00 in0.0 mm 0.00 in0.0 mm
11:05 AM 84.7°F29.3°C 58.4°F14.7°C 41% 1.8 mph NE2.9 kmh NE 7.0 mph11.3 kmh 30.13 in1020.3 mb 0.00 in0.0 mm 0.00 in0.0 mm 0.00 in0.0 mm
11:10 AM 84.1°F28.9°C 59.2°F15.1°C 43% 2.3 mph NE3.7 kmh NE 6.0 mph9.7 kmh 30.13 in1020.3 mb 0.00 in0.0 mm 0.00 in0.0 mm 0.00 in0.0 mm
11:15 AM 84.8°F29.3°C 59.8°F15.4°C 43% 2.0 mph NE3.2 kmh NE 6.0 mph9.7 kmh 30.13 in1020.3 mb 0.00 in0.0 mm 0.00 in0.0 mm 0.00 in0.0 mm
11:20 AM 85.5°F29.7°C 59.1°F15.1°C 41% 2.0 mph NE3.2 kmh NE 8.0 mph12.9 kmh 30.13 in1020.3 mb 0.00 in0.0 mm 0.00 in0.0 mm 0.00 in0.0 mm
11:25 AM 85.4°F29.7°C 57.6°F14.2°C 39% 3.5 mph NNE5.6 kmh NNE 8.0 mph12.9 kmh 30.13 in1020.3 mb 0.00 in0.0 mm 0.00 in0.0 mm 0.00 in0.0 mm
11:30 AM 85.2°F29.6°C 59.5°F15.3°C 42% 2.4 mph NE3.9 kmh NE 10.0 mph16.1 kmh 30.13 in1020.3 mb 0.00 in0.0 mm 0.00 in0.0 mm 0.00 in0.0 mm
11:35 AM 85.0°F29.4°C 57.9°F14.4°C 40% 2.7 mph NE4.3 kmh NE 10.0 mph16.1 kmh 30.12 in1020.0 mb 0.00 in0.0 mm 0.00 in0.0 mm 0.00 in0.0 mm
11:40 AM 85.9°F29.9°C 59.4°F15.2°C 41% 2.5 mph NE4.0 kmh NE 9.0 mph14.5 kmh 30.12 in1020.0 mb 0.00 in0.0 mm 0.00 in0.0 mm 0.00 in0.0 mm
11:45 AM 85.7°F29.8°C 57.9°F14.4°C 39% 2.0 mph E3.2 kmh E 9.0 mph14.5 kmh 30.12 in1020.0 mb 0.00 in0.0 mm 0.00 in0.0 mm 0.00 in0.0 mm
11:50 AM 86.2°F30.1°C 59.0°F15.0°C 40% 3.1 mph NNE5.0 kmh NNE 9.0 mph14.5 kmh 30.12 in1020.0 mb 0.00 in0.0 mm 0.00 in0.0 mm 0.00 in0.0 mm
11:55 AM 86.3°F30.2°C 56.9°F13.8°C 37% 2.3 mph NE3.7 kmh NE 9.0 mph14.5 kmh 30.11 in1019.6 mb 0.00 in0.0 mm 0.00 in0.0 mm 0.00 in0.0 mm
12:00 PM 86.4°F30.2°C 57.8°F14.3°C 38% 2.3 mph ENE3.7 kmh ENE 8.0 mph12.9 kmh 30.11 in1019.6 mb 0.00 in0.0 mm 0.00 in0.0 mm 0.00 in0.0 mm
12:05 PM 86.8°F30.4°C 58.8°F14.9°C 39% 2.8 mph NE4.5 kmh NE 9.0 mph14.5 kmh 30.11 in1019.6 mb 0.00 in0.0 mm 0.00 in0.0 mm 0.00 in0.0 mm
12:10 PM 86.7°F30.4°C 57.3°F14.1°C 37% 2.4 mph E3.9 kmh E 9.0 mph14.5 kmh 30.11 in1019.6 mb 0.00 in0.0 mm 0.00 in0.0 mm 0.00 in0.0 mm
12:15 PM 87.0°F30.6°C 58.3°F14.6°C 38% 2.1 mph NE3.4 kmh NE 9.0 mph14.5 kmh 30.11 in1019.6 mb 0.00 in0.0 mm 0.00 in0.0 mm 0.00 in0.0 mm
12:20 PM 87.3°F30.7°C 57.8°F14.3°C 37% 3.0 mph NE4.8 kmh NE 9.0 mph14.5 kmh 30.11 in1019.6 mb 0.00 in0.0 mm 0.00 in0.0 mm 0.00 in0.0 mm
12:25 PM 87.6°F30.9°C 58.8°F14.9°C 38% 3.2 mph NNE5.1 kmh NNE 12.0 mph19.3 kmh 30.11 in1019.6 mb 0.00 in0.0 mm 0.00 in0.0 mm 0.00 in0.0 mm
12:30 PM 87.1°F30.6°C 56.1°F13.4°C 35% 3.2 mph NE5.1 kmh NE 12.0 mph19.3 kmh 30.11 in1019.6 mb 0.00 in0.0 mm 0.00 in0.0 mm 0.00 in0.0 mm
12:35 PM 87.2°F30.7°C 57.0°F13.9°C 36% 2.4 mph NE3.9 kmh NE 10.0 mph16.1 kmh 30.11 in1019.6 mb 0.00 in0.0 mm 0.00 in0.0 mm 0.00 in0.0 mm
12:40 PM 87.1°F30.6°C 59.1°F15.1°C 39% 2.9 mph NE4.7 kmh NE 9.0 mph14.5 kmh 30.11 in1019.6 mb 0.00 in0.0 mm 0.00 in0.0 mm 0.00 in0.0 mm
12:45 PM 86.9°F30.5°C 57.5°F14.2°C 37% 2.3 mph ENE3.7 kmh ENE 9.0 mph14.5 kmh 30.10 in1019.3 mb 0.00 in0.0 mm 0.00 in0.0 mm 0.00 in0.0 mm
12:50 PM 87.5°F30.8°C 58.0°F14.4°C 37% 2.0 mph E3.2 kmh E 9.0 mph14.5 kmh 30.10 in1019.3 mb 0.00 in0.0 mm 0.00 in0.0 mm 0.00 in0.0 mm
12:55 PM 88.2°F31.2°C 57.8°F14.3°C 36% 2.3 mph ENE3.7 kmh ENE 8.0 mph12.9 kmh 30.10 in1019.3 mb 0.00 in0.0 mm 0.00 in0.0 mm 0.00 in0.0 mm
01:00 PM 87.8°F31.0°C 55.9°F13.3°C 34% 3.7 mph NE6.0 kmh NE 9.0 mph14.5 kmh 30.10 in1019.3 mb 0.00 in0.0 mm 0.00 in0.0 mm 0.00 in0.0 mm
01:05 PM 88.1°F31.2°C 57.0°F13.9°C 35% 1.8 mph ENE2.9 kmh ENE 9.0 mph14.5 kmh 30.10 in1019.3 mb 0.00 in0.0 mm 0.00 in0.0 mm 0.00 in0.0 mm
01:10 PM 88.2°F31.2°C 56.2°F13.4°C 34% 2.2 mph NE3.5 kmh NE 7.0 mph11.3 kmh 30.09 in1019.0 mb 0.00 in0.0 mm 0.00 in0.0 mm 0.00 in0.0 mm
01:15 PM 88.5°F31.4°C 55.7°F13.2°C 33% 2.5 mph NE4.0 kmh NE 7.0 mph11.3 kmh 30.09 in1019.0 mb 0.00 in0.0 mm 0.00 in0.0 mm 0.00 in0.0 mm
01:20 PM 88.3°F31.3°C 57.1°F13.9°C 35% 2.1 mph NE3.4 kmh NE 6.0 mph9.7 kmh 30.09 in1019.0 mb 0.00 in0.0 mm 0.00 in0.0 mm 0.00 in0.0 mm
01:25 PM 88.4°F31.3°C 55.6°F13.1°C 33% 3.0 mph ENE4.8 kmh ENE 8.0 mph12.9 kmh 30.09 in1019.0 mb 0.00 in0.0 mm 0.00 in0.0 mm 0.00 in0.0 mm
01:30 PM 88.6°F31.4°C 54.1°F12.3°C 31% 2.5 mph ENE4.0 kmh ENE 8.0 mph12.9 kmh 30.09 in1019.0 mb 0.00 in0.0 mm 0.00 in0.0 mm 0.00 in0.0 mm
01:35 PM 88.8°F31.6°C 56.8°F13.8°C 34% 2.1 mph NE3.4 kmh NE 8.0 mph12.9 kmh 30.09 in1019.0 mb 0.00 in0.0 mm 0.00 in0.0 mm 0.00 in0.0 mm
01:40 PM 88.5°F31.4°C 54.8°F12.7°C 32% 2.6 mph ENE4.2 kmh ENE 6.0 mph9.7 kmh 30.09 in1019.0 mb 0.00 in0.0 mm 0.00 in0.0 mm 0.00 in0.0 mm
01:45 PM 88.5°F31.4°C 55.7°F13.2°C 33% 2.7 mph E4.3 kmh E 8.0 mph12.9 kmh 30.09 in1019.0 mb 0.00 in0.0 mm 0.00 in0.0 mm 0.00 in0.0 mm
01:50 PM 89.1°F31.7°C 57.8°F14.3°C 35% 2.1 mph NE3.4 kmh NE 8.0 mph12.9 kmh 30.09 in1019.0 mb 0.00 in0.0 mm 0.00 in0.0 mm 0.00 in0.0 mm
01:55 PM 89.0°F31.7°C 55.3°F12.9°C 32% 3.3 mph ENE5.3 kmh ENE 8.0 mph12.9 kmh 30.09 in1019.0 mb 0.00 in0.0 mm 0.00 in0.0 mm 0.00 in0.0 mm
02:00 PM 88.7°F31.5°C 54.1°F12.3°C 31% 2.4 mph ENE3.9 kmh ENE 8.0 mph12.9 kmh 30.09 in1019.0 mb 0.00 in0.0 mm 0.00 in0.0 mm 0.00 in0.0 mm
02:05 PM 88.1°F31.2°C 56.2°F13.4°C 34% 2.0 mph ENE3.2 kmh ENE 5.0 mph8.0 kmh 30.08 in1018.6 mb 0.00 in0.0 mm 0.00 in0.0 mm 0.00 in0.0 mm
02:10 PM 88.7°F31.5°C 55.0°F12.8°C 32% 2.6 mph ENE4.2 kmh ENE 6.0 mph9.7 kmh 30.08 in1018.6 mb 0.00 in0.0 mm 0.00 in0.0 mm 0.00 in0.0 mm
02:15 PM 89.0°F31.7°C 55.3°F12.9°C 32% 3.3 mph NE5.3 kmh NE 9.0 mph14.5 kmh 30.08 in1018.6 mb 0.00 in0.0 mm 0.00 in0.0 mm 0.00 in0.0 mm
02:20 PM 89.0°F31.7°C 54.4°F12.4°C 31% 3.5 mph NNE5.6 kmh NNE 9.0 mph14.5 kmh 30.08 in1018.6 mb 0.00 in0.0 mm 0.00 in0.0 mm 0.00 in0.0 mm
02:25 PM 88.8°F31.6°C 54.2°F12.3°C 31% 3.0 mph NE4.8 kmh NE 10.0 mph16.1 kmh 30.07 in1018.3 mb 0.00 in0.0 mm 0.00 in0.0 mm 0.00 in0.0 mm
02:30 PM 89.1°F31.7°C 56.2°F13.4°C 33% 3.3 mph ENE5.3 kmh ENE 11.0 mph17.7 kmh 30.08 in1018.6 mb 0.00 in0.0 mm 0.00 in0.0 mm 0.00 in0.0 mm
02:35 PM 89.0°F31.7°C 55.3°F12.9°C 32% 2.8 mph NE4.5 kmh NE 11.0 mph17.7 kmh 30.08 in1018.6 mb 0.00 in0.0 mm 0.00 in0.0 mm 0.00 in0.0 mm
02:40 PM 89.4°F31.9°C 54.7°F12.6°C 31% 2.2 mph ENE3.5 kmh ENE 9.0 mph14.5 kmh 30.07 in1018.3 mb 0.00 in0.0 mm 0.00 in0.0 mm 0.00 in0.0 mm
02:45 PM 89.8°F32.1°C 56.8°F13.8°C 33% 2.8 mph NE4.5 kmh NE 7.0 mph11.3 kmh 30.07 in1018.3 mb 0.00 in0.0 mm 0.00 in0.0 mm 0.00 in0.0 mm
02:50 PM 89.5°F31.9°C 54.8°F12.7°C 31% 2.7 mph NE4.3 kmh NE 7.0 mph11.3 kmh 30.07 in1018.3 mb 0.00 in0.0 mm 0.00 in0.0 mm 0.00 in0.0 mm
02:55 PM 89.1°F31.7°C 55.4°F13.0°C 32% 3.5 mph NE5.6 kmh NE 10.0 mph16.1 kmh 30.07 in1018.3 mb 0.00 in0.0 mm 0.00 in0.0 mm 0.00 in0.0 mm
03:00 PM 89.2°F31.8°C 54.6°F12.6°C 31% 3.0 mph NE4.8 kmh NE 14.0 mph22.5 kmh 30.07 in1018.3 mb 0.00 in0.0 mm 0.00 in0.0 mm 0.00 in0.0 mm
03:05 PM 89.2°F31.8°C 55.4°F13.0°C 32% 3.4 mph NE5.5 kmh NE 14.0 mph22.5 kmh 30.07 in1018.3 mb 0.00 in0.0 mm 0.00 in0.0 mm 0.00 in0.0 mm
03:10 PM 89.5°F31.9°C 55.7°F13.2°C 32% 2.9 mph NE4.7 kmh NE 10.0 mph16.1 kmh 30.07 in1018.3 mb 0.00 in0.0 mm 0.00 in0.0 mm 0.00 in0.0 mm
03:15 PM 89.1°F31.7°C 53.6°F12.0°C 30% 2.3 mph ENE3.7 kmh ENE 7.0 mph11.3 kmh 30.07 in1018.3 mb 0.00 in0.0 mm 0.00 in0.0 mm 0.00 in0.0 mm
03:20 PM 88.7°F31.5°C 54.1°F12.3°C 31% 1.7 mph ENE2.7 kmh ENE 5.0 mph8.0 kmh 30.06 in1017.9 mb 0.00 in0.0 mm 0.00 in0.0 mm 0.00 in0.0 mm
03:25 PM 89.5°F31.9°C 55.7°F13.2°C 32% 2.4 mph NE3.9 kmh NE 9.0 mph14.5 kmh 30.07 in1018.3 mb 0.00 in0.0 mm 0.00 in0.0 mm 0.00 in0.0 mm
03:30 PM 89.4°F31.9°C 55.6°F13.1°C 32% 3.4 mph NNE5.5 kmh NNE 10.0 mph16.1 kmh 30.06 in1017.9 mb 0.00 in0.0 mm 0.00 in0.0 mm 0.00 in0.0 mm
03:35 PM 89.3°F31.8°C 53.8°F12.1°C 30% 3.5 mph NE5.6 kmh NE 10.0 mph16.1 kmh 30.06 in1017.9 mb 0.00 in0.0 mm 0.00 in0.0 mm 0.00 in0.0 mm
03:40 PM 88.7°F31.5°C 53.2°F11.8°C 30% 2.3 mph ENE3.7 kmh ENE 10.0 mph16.1 kmh 30.06 in1017.9 mb 0.00 in0.0 mm 0.00 in0.0 mm 0.00 in0.0 mm
03:45 PM 88.8°F31.6°C 53.3°F11.8°C 30% 2.1 mph NE3.4 kmh NE 6.0 mph9.7 kmh 30.06 in1017.9 mb 0.00 in0.0 mm 0.00 in0.0 mm 0.00 in0.0 mm
03:50 PM 89.2°F31.8°C 53.7°F12.1°C 30% 2.4 mph NE3.9 kmh NE 6.0 mph9.7 kmh 30.06 in1017.9 mb 0.00 in0.0 mm 0.00 in0.0 mm 0.00 in0.0 mm
03:55 PM 89.6°F32.0°C 55.8°F13.2°C 32% 2.1 mph ENE3.4 kmh ENE 6.0 mph9.7 kmh 30.06 in1017.9 mb 0.00 in0.0 mm 0.00 in0.0 mm 0.00 in0.0 mm
04:00 PM 89.5°F31.9°C 54.8°F12.7°C 31% 2.5 mph NE4.0 kmh NE 6.0 mph9.7 kmh 30.05 in1017.6 mb 0.00 in0.0 mm 0.00 in0.0 mm 0.00 in0.0 mm
04:05 PM 90.2°F32.3°C 55.4°F13.0°C 31% 2.0 mph E3.2 kmh E 9.0 mph14.5 kmh 30.05 in1017.6 mb 0.00 in0.0 mm 0.00 in0.0 mm 0.00 in0.0 mm
04:10 PM 89.6°F32.0°C 54.9°F12.7°C 31% 2.5 mph NE4.0 kmh NE 9.0 mph14.5 kmh 30.05 in1017.6 mb 0.00 in0.0 mm 0.00 in0.0 mm 0.00 in0.0 mm
04:15 PM 88.7°F31.5°C 55.0°F12.8°C 32% 2.6 mph NE4.2 kmh NE 8.0 mph12.9 kmh 30.05 in1017.6 mb 0.00 in0.0 mm 0.00 in0.0 mm 0.00 in0.0 mm
04:20 PM 89.1°F31.7°C 55.4°F13.0°C 32% 1.9 mph ENE3.1 kmh ENE 6.0 mph9.7 kmh 30.05 in1017.6 mb 0.00 in0.0 mm 0.00 in0.0 mm 0.00 in0.0 mm
04:25 PM 89.5°F31.9°C 56.6°F13.7°C 33% 1.7 mph NE2.7 kmh NE 6.0 mph9.7 kmh 30.05 in1017.6 mb 0.00 in0.0 mm 0.00 in0.0 mm 0.00 in0.0 mm
04:30 PM 89.5°F31.9°C 54.8°F12.7°C 31% 2.2 mph ENE3.5 kmh ENE 8.0 mph12.9 kmh 30.05 in1017.6 mb 0.00 in0.0 mm 0.00 in0.0 mm 0.00 in0.0 mm
04:35 PM 89.1°F31.7°C 55.4°F13.0°C 32% 1.8 mph ENE2.9 kmh ENE 8.0 mph12.9 kmh 30.05 in1017.6 mb 0.00 in0.0 mm 0.00 in0.0 mm 0.00 in0.0 mm
04:40 PM 89.2°F31.8°C 54.6°F12.6°C 31% 2.6 mph ENE4.2 kmh ENE 8.0 mph12.9 kmh 30.05 in1017.6 mb 0.00 in0.0 mm 0.00 in0.0 mm 0.00 in0.0 mm
04:45 PM 89.2°F31.8°C 56.3°F13.5°C 33% 3.5 mph NE5.6 kmh NE 8.0 mph12.9 kmh 30.04 in1017.3 mb 0.00 in0.0 mm 0.00 in0.0 mm 0.00 in0.0 mm
04:50 PM 89.0°F31.7°C 55.3°F12.9°C 32% 2.8 mph NE4.5 kmh NE 8.0 mph12.9 kmh 30.04 in1017.3 mb 0.00 in0.0 mm 0.00 in0.0 mm 0.00 in0.0 mm
04:55 PM 88.7°F31.5°C 55.0°F12.8°C 32% 2.8 mph ENE4.5 kmh ENE 8.0 mph12.9 kmh 30.04 in1017.3 mb 0.00 in0.0 mm 0.00 in0.0 mm 0.00 in0.0 mm
05:00 PM 88.7°F31.5°C 55.9°F13.3°C 33% 2.4 mph ENE3.9 kmh ENE 7.0 mph11.3 kmh 30.04 in1017.3 mb 0.00 in0.0 mm 0.00 in0.0 mm 0.00 in0.0 mm
05:05 PM 88.8°F31.6°C 54.2°F12.3°C 31% 2.5 mph NE4.0 kmh NE 7.0 mph11.3 kmh 30.04 in1017.3 mb 0.00 in0.0 mm 0.00 in0.0 mm 0.00 in0.0 mm
05:10 PM 88.6°F31.4°C 54.9°F12.7°C 32% 1.5 mph NE2.4 kmh NE 7.0 mph11.3 kmh 30.03 in1016.9 mb 0.00 in0.0 mm 0.00 in0.0 mm 0.00 in0.0 mm
05:15 PM 88.7°F31.5°C 55.9°F13.3°C 33% 1.5 mph NE2.4 kmh NE 4.0 mph6.4 kmh 30.03 in1016.9 mb 0.00 in0.0 mm 0.00 in0.0 mm 0.00 in0.0 mm
05:20 PM 88.7°F31.5°C 54.1°F12.3°C 31% 2.3 mph ENE3.7 kmh ENE 6.0 mph9.7 kmh 30.04 in1017.3 mb 0.00 in0.0 mm 0.00 in0.0 mm 0.00 in0.0 mm
05:25 PM 88.5°F31.4°C 54.8°F12.7°C 32% 2.2 mph NE3.5 kmh NE 6.0 mph9.7 kmh 30.04 in1017.3 mb 0.00 in0.0 mm 0.00 in0.0 mm 0.00 in0.0 mm
05:30 PM 88.4°F31.3°C 55.6°F13.1°C 33% 1.7 mph NE2.7 kmh NE 6.0 mph9.7 kmh 30.04 in1017.3 mb 0.00 in0.0 mm 0.00 in0.0 mm 0.00 in0.0 mm
05:35 PM 88.1°F31.2°C 54.5°F12.5°C 32% 2.7 mph ENE4.3 kmh ENE 8.0 mph12.9 kmh 30.04 in1017.3 mb 0.00 in0.0 mm 0.00 in0.0 mm 0.00 in0.0 mm
05:40 PM 88.1°F31.2°C 54.5°F12.5°C 32% 2.1 mph E3.4 kmh E 8.0 mph12.9 kmh 30.04 in1017.3 mb 0.00 in0.0 mm 0.00 in0.0 mm 0.00 in0.0 mm
05:45 PM 88.0°F31.1°C 55.3°F12.9°C 33% 2.4 mph NE3.9 kmh NE 10.0 mph16.1 kmh 30.04 in1017.3 mb 0.00 in0.0 mm 0.00 in0.0 mm 0.00 in0.0 mm
05:50 PM 87.9°F31.1°C 54.3°F12.4°C 32% 2.0 mph NE3.2 kmh NE 10.0 mph16.1 kmh 30.04 in1017.3 mb 0.00 in0.0 mm 0.00 in0.0 mm 0.00 in0.0 mm
05:55 PM 87.6°F30.9°C 55.7°F13.2°C 34% 2.0 mph NE3.2 kmh NE 6.0 mph9.7 kmh 30.04 in1017.3 mb 0.00 in0.0 mm 0.00 in0.0 mm 0.00 in0.0 mm
06:00 PM 86.7°F30.4°C 54.9°F12.7°C 34% 2.2 mph NE3.5 kmh NE 6.0 mph9.7 kmh 30.04 in1017.3 mb 0.00 in0.0 mm 0.00 in0.0 mm 0.00 in0.0 mm
06:05 PM 86.3°F30.2°C 54.6°F12.6°C 34% 1.9 mph NE3.1 kmh NE 6.0 mph9.7 kmh 30.04 in1017.3 mb 0.00 in0.0 mm 0.00 in0.0 mm 0.00 in0.0 mm
06:10 PM 86.7°F30.4°C 54.1°F12.3°C 33% 1.7 mph NE2.7 kmh NE 6.0 mph9.7 kmh 30.04 in1017.3 mb 0.00 in0.0 mm 0.00 in0.0 mm 0.00 in0.0 mm
06:15 PM 87.0°F30.6°C 54.4°F12.4°C 33% 1.5 mph NE2.4 kmh NE 7.0 mph11.3 kmh 30.04 in1017.3 mb 0.00 in0.0 mm 0.00 in0.0 mm 0.00 in0.0 mm
06:20 PM 86.9°F30.5°C 53.5°F11.9°C 32% 2.4 mph ENE3.9 kmh ENE 7.0 mph11.3 kmh 30.04 in1017.3 mb 0.00 in0.0 mm 0.00 in0.0 mm 0.00 in0.0 mm
06:25 PM 86.7°F30.4°C 54.1°F12.3°C 33% 2.0 mph NE3.2 kmh NE 7.0 mph11.3 kmh 30.04 in1017.3 mb 0.00 in0.0 mm 0.00 in0.0 mm 0.00 in0.0 mm
06:30 PM 86.6°F30.3°C 53.2°F11.8°C 32% 1.2 mph ENE1.9 kmh ENE 5.0 mph8.0 kmh 30.04 in1017.3 mb 0.00 in0.0 mm 0.00 in0.0 mm 0.00 in0.0 mm
06:35 PM 86.6°F30.3°C 54.0°F12.2°C 33% 1.4 mph ENE2.3 kmh ENE 4.0 mph6.4 kmh 30.04 in1017.3 mb 0.00 in0.0 mm 0.00 in0.0 mm 0.00 in0.0 mm
06:40 PM 86.4°F30.2°C 53.9°F12.2°C 33% 2.2 mph NE3.5 kmh NE 6.0 mph9.7 kmh 30.04 in1017.3 mb 0.00 in0.0 mm 0.00 in0.0 mm 0.00 in0.0 mm
06:45 PM 86.1°F30.1°C 54.4°F12.4°C 34% 1.6 mph NE2.6 kmh NE 7.0 mph11.3 kmh 30.04 in1017.3 mb 0.00 in0.0 mm 0.00 in0.0 mm 0.00 in0.0 mm
06:50 PM 85.7°F29.8°C 54.1°F12.3°C 34% 0.2 mph NE0.3 kmh NE 7.0 mph11.3 kmh 30.04 in1017.3 mb 0.00 in0.0 mm 0.00 in0.0 mm 0.00 in0.0 mm
06:55 PM 85.4°F29.7°C 53.8°F12.1°C 34% 1.3 mph NE2.1 kmh NE 4.0 mph6.4 kmh 30.04 in1017.3 mb 0.00 in0.0 mm 0.00 in0.0 mm 0.00 in0.0 mm
07:00 PM 85.2°F29.6°C 53.6°F12.0°C 34% 1.6 mph NE2.6 kmh NE 5.0 mph8.0 kmh 30.04 in1017.3 mb 0.00 in0.0 mm 0.00 in0.0 mm 0.00 in0.0 mm
07:05 PM 84.9°F29.4°C 54.2°F12.3°C 35% 1.5 mph NE2.4 kmh NE 6.0 mph9.7 kmh 30.04 in1017.3 mb 0.00 in0.0 mm 0.00 in0.0 mm 0.00 in0.0 mm
07:10 PM 84.7°F29.3°C 54.8°F12.7°C 36% 1.2 mph ENE1.9 kmh ENE 6.0 mph9.7 kmh 30.05 in1017.6 mb 0.00 in0.0 mm 0.00 in0.0 mm 0.00 in0.0 mm
07:15 PM 84.4°F29.1°C 54.5°F12.5°C 36% 1.4 mph ENE2.3 kmh ENE 5.0 mph8.0 kmh 30.05 in1017.6 mb 0.00 in0.0 mm 0.00 in0.0 mm 0.00 in0.0 mm
07:20 PM 84.1°F28.9°C 54.2°F12.3°C 36% 1.2 mph NE1.9 kmh NE 5.0 mph8.0 kmh 30.05 in1017.6 mb 0.00 in0.0 mm 0.00 in0.0 mm 0.00 in0.0 mm
07:25 PM 83.6°F28.7°C 54.5°F12.5°C 37% 0.5 mph NE0.8 kmh NE 4.0 mph6.4 kmh 30.05 in1017.6 mb 0.00 in0.0 mm 0.00 in0.0 mm 0.00 in0.0 mm
07:30 PM 83.3°F28.5°C 55.0°F12.8°C 38% 0.6 mph NE1.0 kmh NE 3.0 mph4.8 kmh 30.05 in1017.6 mb 0.00 in0.0 mm 0.00 in0.0 mm 0.00 in0.0 mm
07:35 PM 82.8°F28.2°C 54.6°F12.6°C 38% 0.3 mph NE0.5 kmh NE 3.0 mph4.8 kmh 30.05 in1017.6 mb 0.00 in0.0 mm 0.00 in0.0 mm 0.00 in0.0 mm
07:40 PM 82.5°F28.1°C 55.0°F12.8°C 39% 0.5 mph NE0.8 kmh NE 2.0 mph3.2 kmh 30.05 in1017.6 mb 0.00 in0.0 mm 0.00 in0.0 mm 0.00 in0.0 mm
07:45 PM 82.2°F27.9°C 54.7°F12.6°C 39% 0.1 mph NE0.2 kmh NE 2.0 mph3.2 kmh 30.05 in1017.6 mb 0.00 in0.0 mm 0.00 in0.0 mm 0.00 in0.0 mm
07:50 PM 81.8°F27.7°C 55.1°F12.8°C 40% 0.3 mph NE0.5 kmh NE 2.0 mph3.2 kmh 30.05 in1017.6 mb 0.00 in0.0 mm 0.00 in0.0 mm 0.00 in0.0 mm
07:55 PM 81.5°F27.5°C 55.5°F13.1°C 41% 0.2 mph NE0.3 kmh NE 2.0 mph3.2 kmh 30.06 in1017.9 mb 0.00 in0.0 mm 0.00 in0.0 mm 0.00 in0.0 mm
08:00 PM 81.4°F27.4°C 54.7°F12.6°C 40% 0.2 mph NE0.3 kmh NE 2.0 mph3.2 kmh 30.06 in1017.9 mb 0.00 in0.0 mm 0.00 in0.0 mm 0.00 in0.0 mm
08:05 PM 81.3°F27.4°C 55.3°F12.9°C 41% 0.4 mph NE0.6 kmh NE 2.0 mph3.2 kmh 30.06 in1017.9 mb 0.00 in0.0 mm 0.00 in0.0 mm 0.00 in0.0 mm
08:10 PM 81.2°F27.3°C 55.2°F12.9°C 41% 0.1 mph NE0.2 kmh NE 2.0 mph3.2 kmh 30.06 in1017.9 mb 0.00 in0.0 mm 0.00 in0.0 mm 0.00 in0.0 mm
08:15 PM 80.8°F27.1°C 55.5°F13.1°C 42% Calm Calm 1.0 mph1.6 kmh 30.06 in1017.9 mb 0.00 in0.0 mm 0.00 in0.0 mm 0.00 in0.0 mm
08:20 PM 80.7°F27.1°C 56.1°F13.4°C 43% Calm Calm 1.0 mph1.6 kmh 30.06 in1017.9 mb 0.00 in0.0 mm 0.00 in0.0 mm 0.00 in0.0 mm
08:25 PM 80.4°F26.9°C 55.8°F13.2°C 43% Calm Calm 1.0 mph1.6 kmh 30.06 in1017.9 mb 0.00 in0.0 mm 0.00 in0.0 mm 0.00 in0.0 mm
08:30 PM 80.3°F26.8°C 55.7°F13.2°C 43% 0.3 mph NE0.5 kmh NE 2.0 mph3.2 kmh 30.06 in1017.9 mb 0.00 in0.0 mm 0.00 in0.0 mm 0.00 in0.0 mm
08:35 PM 80.3°F26.8°C 56.4°F13.6°C 44% 0.3 mph NE0.5 kmh NE 2.0 mph3.2 kmh 30.07 in1018.3 mb 0.00 in0.0 mm 0.00 in0.0 mm 0.00 in0.0 mm
08:40 PM 80.0°F26.7°C 56.7°F13.7°C 45% Calm Calm 2.0 mph3.2 kmh 30.07 in1018.3 mb 0.00 in0.0 mm 0.00 in0.0 mm 0.00 in0.0 mm
08:45 PM 79.7°F26.5°C 56.5°F13.6°C 45% 0.2 mph NE0.3 kmh NE 2.0 mph3.2 kmh 30.06 in1017.9 mb 0.00 in0.0 mm 0.00 in0.0 mm 0.00 in0.0 mm
08:50 PM 79.9°F26.6°C 56.6°F13.7°C 45% 0.2 mph NE0.3 kmh NE 2.0 mph3.2 kmh 30.07 in1018.3 mb 0.00 in0.0 mm 0.00 in0.0 mm 0.00 in0.0 mm
08:55 PM 79.6°F26.4°C 57.0°F13.9°C 46% Calm Calm 1.0 mph1.6 kmh 30.07 in1018.3 mb 0.00 in0.0 mm 0.00 in0.0 mm 0.00 in0.0 mm
09:00 PM 79.4°F26.3°C 56.8°F13.8°C 46% Calm Calm 1.0 mph1.6 kmh 30.07 in1018.3 mb 0.00 in0.0 mm 0.00 in0.0 mm 0.00 in0.0 mm
09:05 PM 79.2°F26.2°C 56.6°F13.7°C 46% 0.2 mph NE0.3 kmh NE 2.0 mph3.2 kmh 30.07 in1018.3 mb 0.00 in0.0 mm 0.00 in0.0 mm 0.00 in0.0 mm
09:10 PM 79.3°F26.3°C 56.7°F13.7°C 46% 0.2 mph NE0.3 kmh NE 2.0 mph3.2 kmh 30.07 in1018.3 mb 0.00 in0.0 mm 0.00 in0.0 mm 0.00 in0.0 mm
09:15 PM 79.3°F26.3°C 56.7°F13.7°C 46% Calm Calm 2.0 mph3.2 kmh 30.07 in1018.3 mb 0.00 in0.0 mm 0.00 in0.0 mm 0.00 in0.0 mm
09:20 PM 79.2°F26.2°C 56.6°F13.7°C 46% 0.3 mph NE0.5 kmh NE 2.0 mph3.2 kmh 30.07 in1018.3 mb 0.00 in0.0 mm 0.00 in0.0 mm 0.00 in0.0 mm
09:25 PM 79.0°F26.1°C 57.0°F13.9°C 47% Calm Calm 2.0 mph3.2 kmh 30.08 in1018.6 mb 0.00 in0.0 mm 0.00 in0.0 mm 0.00 in0.0 mm
09:30 PM 78.5°F25.8°C 57.2°F14.0°C 48% Calm Calm -- 30.08 in1018.6 mb 0.00 in0.0 mm 0.00 in0.0 mm 0.00 in0.0 mm
09:35 PM 78.3°F25.7°C 57.5°F14.2°C 49% Calm Calm -- 30.08 in1018.6 mb 0.00 in0.0 mm 0.00 in0.0 mm 0.00 in0.0 mm
09:40 PM 78.3°F25.7°C 57.5°F14.2°C 49% Calm Calm -- 30.08 in1018.6 mb 0.00 in0.0 mm 0.00 in0.0 mm 0.00 in0.0 mm
09:45 PM 78.0°F25.6°C 57.3°F14.1°C 49% Calm Calm -- 30.08 in1018.6 mb 0.00 in0.0 mm 0.00 in0.0 mm 0.00 in0.0 mm
09:50 PM 77.9°F25.5°C 57.7°F14.3°C 50% 0.2 mph NE0.3 kmh NE 1.0 mph1.6 kmh 30.09 in1019.0 mb 0.00 in0.0 mm 0.00 in0.0 mm 0.00 in0.0 mm
09:55 PM 78.4°F25.8°C 57.6°F14.2°C 49% 1.0 mph NE1.6 kmh NE 3.0 mph4.8 kmh 30.09 in1019.0 mb 0.00 in0.0 mm 0.00 in0.0 mm 0.00 in0.0 mm
10:00 PM 78.4°F25.8°C 57.6°F14.2°C 49% 0.2 mph NNE0.3 kmh NNE 3.0 mph4.8 kmh 30.09 in1019.0 mb 0.00 in0.0 mm 0.00 in0.0 mm 0.00 in0.0 mm
10:05 PM 78.3°F25.7°C 57.5°F14.2°C 49% 0.5 mph NNE0.8 kmh NNE 3.0 mph4.8 kmh 30.09 in1019.0 mb 0.00 in0.0 mm 0.00 in0.0 mm 0.00 in0.0 mm
10:10 PM 78.1°F25.6°C 57.4°F14.1°C 49% Calm Calm 3.0 mph4.8 kmh 30.09 in1019.0 mb 0.00 in0.0 mm 0.00 in0.0 mm 0.00 in0.0 mm
10:15 PM 77.9°F25.5°C 57.2°F14.0°C 49% 0.1 mph NNE0.2 kmh NNE 1.0 mph1.6 kmh 30.09 in1019.0 mb 0.00 in0.0 mm 0.00 in0.0 mm 0.00 in0.0 mm
10:20 PM 77.7°F25.4°C 57.6°F14.2°C 50% 0.2 mph NNE0.3 kmh NNE 2.0 mph3.2 kmh 30.09 in1019.0 mb 0.00 in0.0 mm 0.00 in0.0 mm 0.00 in0.0 mm
10:25 PM 77.5°F25.3°C 57.9°F14.4°C 51% 1.4 mph NE2.3 kmh NE 3.0 mph4.8 kmh 30.10 in1019.3 mb 0.00 in0.0 mm 0.00 in0.0 mm 0.00 in0.0 mm
10:30 PM 76.9°F24.9°C 58.4°F14.7°C 53% 0.4 mph ENE0.6 kmh ENE 3.0 mph4.8 kmh 30.10 in1019.3 mb 0.00 in0.0 mm 0.00 in0.0 mm 0.00 in0.0 mm
10:35 PM 76.6°F24.8°C 58.2°F14.6°C 53% Calm Calm 2.0 mph3.2 kmh 30.10 in1019.3 mb 0.00 in0.0 mm 0.00 in0.0 mm 0.00 in0.0 mm
10:40 PM 76.6°F24.8°C 58.2°F14.6°C 53% Calm Calm -- 30.10 in1019.3 mb 0.00 in0.0 mm 0.00 in0.0 mm 0.00 in0.0 mm
10:45 PM 76.9°F24.9°C 58.4°F14.7°C 53% Calm Calm 1.0 mph1.6 kmh 30.10 in1019.3 mb 0.00 in0.0 mm 0.00 in0.0 mm 0.00 in0.0 mm
10:50 PM 76.8°F24.9°C 58.4°F14.7°C 53% 0.2 mph ENE0.3 kmh ENE 1.0 mph1.6 kmh 30.10 in1019.3 mb 0.00 in0.0 mm 0.00 in0.0 mm 0.00 in0.0 mm
10:55 PM 76.5°F24.7°C 58.1°F14.5°C 53% Calm Calm 1.0 mph1.6 kmh 30.10 in1019.3 mb 0.00 in0.0 mm 0.00 in0.0 mm 0.00 in0.0 mm
11:00 PM 76.4°F24.7°C 58.5°F14.7°C 54% 0.1 mph ENE0.2 kmh ENE 1.0 mph1.6 kmh 30.10 in1019.3 mb 0.00 in0.0 mm 0.00 in0.0 mm 0.00 in0.0 mm
11:05 PM 76.2°F24.6°C 58.3°F14.6°C 54% 0.3 mph ENE0.5 kmh ENE 2.0 mph3.2 kmh 30.10 in1019.3 mb 0.00 in0.0 mm 0.00 in0.0 mm 0.00 in0.0 mm
11:10 PM 76.5°F24.7°C 58.1°F14.5°C 53% 0.6 mph ENE1.0 kmh ENE 3.0 mph4.8 kmh 30.10 in1019.3 mb 0.00 in0.0 mm 0.00 in0.0 mm 0.00 in0.0 mm
11:15 PM 76.4°F24.7°C 57.5°F14.2°C 52% 0.6 mph NE1.0 kmh NE 3.0 mph4.8 kmh 30.11 in1019.6 mb 0.00 in0.0 mm 0.00 in0.0 mm 0.00 in0.0 mm
11:20 PM 76.1°F24.5°C 57.7°F14.3°C 53% 0.3 mph NE0.5 kmh NE 2.0 mph3.2 kmh 30.11 in1019.6 mb 0.00 in0.0 mm 0.00 in0.0 mm 0.00 in0.0 mm
11:25 PM 76.1°F24.5°C 57.7°F14.3°C 53% 0.4 mph NE0.6 kmh NE 2.0 mph3.2 kmh 30.11 in1019.6 mb 0.00 in0.0 mm 0.00 in0.0 mm 0.00 in0.0 mm
11:30 PM 75.7°F24.3°C 57.9°F14.4°C 54% 0.3 mph NE0.5 kmh NE 2.0 mph3.2 kmh 30.11 in1019.6 mb 0.00 in0.0 mm 0.00 in0.0 mm 0.00 in0.0 mm
11:35 PM 75.4°F24.1°C 57.6°F14.2°C 54% 0.5 mph NE0.8 kmh NE 2.0 mph3.2 kmh 30.11 in1019.6 mb 0.00 in0.0 mm 0.00 in0.0 mm 0.00 in0.0 mm
11:40 PM 75.6°F24.2°C 57.8°F14.3°C 54% 0.6 mph NE1.0 kmh NE 3.0 mph4.8 kmh 30.11 in1019.6 mb 0.00 in0.0 mm 0.00 in0.0 mm 0.00 in0.0 mm
11:45 PM 75.6°F24.2°C 57.8°F14.3°C 54% 0.8 mph NE1.3 kmh NE 3.0 mph4.8 kmh 30.11 in1019.6 mb 0.00 in0.0 mm 0.00 in0.0 mm 0.00 in0.0 mm
11:50 PM 75.5°F24.2°C 57.7°F14.3°C 54% 0.6 mph NE1.0 kmh NE 3.0 mph4.8 kmh 30.11 in1019.6 mb 0.00 in0.0 mm 0.00 in0.0 mm 0.00 in0.0 mm
11:55 PM 75.4°F24.1°C 57.6°F14.2°C 54% 0.4 mph NE0.6 kmh NE 3.0 mph4.8 kmh 30.11 in1019.6 mb 0.00 in0.0 mm 0.00 in0.0 mm 0.00 in0.0 mm